Flight Track Log - Related Links

Times and Time Zones

All times are in EDT time to prevent confusion due to time zone crossing. See the ASH3751 flight status page for this flight to view local times or setup timezone preferences in your user account.

Time Position Orientation Groundspeed Altitude Reporting Facility
EDT Latitude Longitude Course Direction KTS MPH feet Rate Location/Type
Sun 12:50:06 29.5197 -98.4547 90° East 158 182 1,700  Level Houston Center
Sun 12:50:30 29.5053 -98.4347 130° Southeast 166 191 2,500 1,835 Climbing Houston Center
Sun 12:51:31 29.4997 -98.3731 96° East 244 281 4,300 1,884 Climbing Houston Center
Sun 12:51:56 29.5211 -98.3564 34° Northeast 242 278 5,200 2,207 Climbing Houston Center
Sun 12:52:58 29.5603 -98.2822 59° Northeast 270 311 7,500 2,177 Climbing Houston Center
Sun 12:53:00 29.6500 -97.9007 90° East  Level FlightAware Approximate
Sun 12:54:00 29.6500 -97.7497 90° East  Level FlightAware Approximate
Sun 12:54:00 29.5775 -98.1947 77° East 281 323 9,700  Level Houston Center
Sun 12:55:00 29.6501 -97.5987 90° East  Level FlightAware Approximate
Sun 12:55:02 29.5983 -98.0925 77° East 305 351 11,300  Level Houston Center
Sun 12:56:04 29.6206 -97.9844 77° East 347 399 12,400 1,113 Climbing Houston Center
Sun 12:57:06 29.6469 -97.8581 76° East 379 436 13,600 1,065 Climbing Houston Center
Sun 12:58:08 29.6553 -97.7458 85° East 398 458 14,600 1,016 Climbing Houston Center
Sun 12:59:10 29.6553 -97.6144 90° East 408 470 15,700 1,210 Climbing Houston Center
Sun 13:00:12 29.6567 -97.4550 89° East 415 478 17,100 1,210 Climbing Houston Center
Sun 13:01:14 29.6581 -97.3169 89° East 428 493 18,200 1,065 Climbing Houston Center
Sun 13:02:16 29.6592 -97.1778 89° East 431 496 19,300 1,152 Climbing Houston Center
Sun 13:03:19 29.6594 -97.0381 90° East 434 499 20,600 1,152 Climbing Houston Center
Sun 13:04:21 29.6406 -96.9003 99° East 436 502 21,700 968 Climbing Houston Center
Sun 13:05:23 29.6164 -96.7606 101° East 439 505 22,600 919 Climbing Houston Center
Sun 13:06:25 29.5958 -96.6197 99° East 443 510 23,600 968 Climbing Houston Center
Sun 13:07:27 29.5811 -96.4775 97° East 445 512 24,600 968 Climbing Houston Center
Sun 13:08:29 29.5694 -96.3042 94° East 453 521 25,600 919 Climbing Houston Center
Sun 13:09:31 29.6442 -96.1931 52° Northeast 451 519 26,500 871 Climbing Houston Center
Sun 13:10:33 29.7347 -96.0981 42° Northeast 444 511 27,400 871 Climbing Houston Center
Sun 13:11:35 29.8222 -96.0061 42° Northeast 447 514 28,300 823 Climbing Houston Center
Sun 13:12:37 29.9131 -95.9078 43° Northeast 447 514 29,100 823 Climbing Houston Center
Sun 13:13:39 30.0244 -95.7894 43° Northeast 450 518 30,000 816 Climbing Houston Center
Sun 13:14:42 30.1172 -95.6914 42° Northeast 451 519 30,800 720 Climbing Houston Center
Sun 13:15:44 30.2103 -95.5925 43° Northeast 451 519 31,500 726 Climbing Houston Center
Sun 13:16:46 30.3025 -95.4933 43° Northeast 453 521 32,300 629 Climbing Houston Center
Sun 13:17:48 30.3969 -95.3900 43° Northeast 463 533 32,800 532 Climbing Houston Center
Sun 13:18:50 30.4931 -95.2839 44° Northeast 462 532 33,400 677 Climbing Houston Center
Sun 13:19:52 30.6042 -95.1603 44° Northeast 461 531 34,200 629 Climbing Houston Center
Sun 13:20:54 30.6986 -95.0564 43° Northeast 464 534 34,700 387 Climbing Houston Center
Sun 13:21:56 30.7931 -94.9531 43° Northeast 467 537 35,000 145 Climbing Houston Center
Sun 13:22:58 30.8889 -94.8467 44° Northeast 473 544 35,000  Level Houston Center
Sun 13:24:00 30.9864 -94.7392 43° Northeast 481 554 35,000  Level Houston Center
Sun 13:25:02 31.0822 -94.6306 44° Northeast 486 559 35,000  Level Houston Center
Sun 13:26:04 31.1992 -94.5039 43° Northeast 486 559 35,000  Level Houston Center
Sun 13:27:06 31.2972 -94.3956 43° Northeast 488 562 35,000  Level Houston Center
Sun 13:28:08 31.3942 -94.2881 43° Northeast 485 558 35,000 145 Level Houston Center
Sun 13:29:10 31.4914 -94.1789 44° Northeast 485 558 35,300 581 Climbing Houston Center
Sun 13:30:12 31.6075 -94.0506 43° Northeast 481 554 36,200 774 Climbing Houston Center
Sun 13:31:14 31.7019 -93.9436 44° Northeast 475 547 36,900 387 Climbing Houston Center
Sun 13:32:16 31.7978 -93.8350 44° Northeast 472 543 37,000 48 Climbing Houston Center
Sun 13:33:18 31.8944 -93.7261 44° Northeast 478 550 37,000  Level Houston Center
Sun 13:34:20 31.9886 -93.6183 44° Northeast 474 545 37,000 97 Level Houston Center
Sun 13:35:22 32.0839 -93.5097 44° Northeast 475 547 37,200 484 Climbing Houston Center
Sun 13:36:24 32.1769 -93.4025 44° Northeast 466 536 38,000 246 Climbing Houston Center
Sun 13:38:37 32.3836 -93.1600 45° Northeast 456 525 38,000  Level Fort Worth Center
Sun 13:39:37 32.4739 -93.0525 45° Northeast 456 525 38,000  Level Fort Worth Center
Sun 13:40:37 32.5664 -92.9469 44° Northeast 456 525 38,000  Level Fort Worth Center
Sun 13:41:37 32.6586 -92.8411 44° Northeast 461 531 38,000  Level Fort Worth Center
Sun 13:42:37 32.7464 -92.7381 45° Northeast 461 531 38,000  Level Fort Worth Center
Sun 13:43:37 32.8386 -92.6344 43° Northeast 461 531 38,000  Level Fort Worth Center
Sun 13:44:37 32.9283 -92.5256 46° Northeast 456 525 38,000  Level Fort Worth Center
Sun 13:45:37 33.0222 -92.4164 44° Northeast 462 532 38,000  Level Fort Worth Center
Sun 13:46:44 33.1311 -92.2847 45° Northeast 464 534 38,000  Level Memphis Center
Sun 13:47:44 33.2286 -92.1728 44° Northeast 470 541 38,000  Level Memphis Center
Sun 13:48:44 33.3219 -92.0653 44° Northeast 470 541 38,000  Level Memphis Center
Sun 13:49:44 33.4175 -91.9550 44° Northeast 464 534 38,000  Level Memphis Center
Sun 13:50:44 33.5106 -91.8422 45° Northeast 464 534 38,000 200 Level Memphis Center
Sun 13:51:44 33.6039 -91.7264 46° Northeast 469 540 38,400 450 Climbing Memphis Center
Sun 13:52:44 33.6969 -91.6131 45° Northeast 463 533 38,900 300 Climbing Memphis Center
Sun 13:53:44 33.7878 -91.5044 45° Northeast 463 533 39,000 50 Climbing Memphis Center
Sun 13:54:44 33.8825 -91.3881 46° Northeast 468 539 39,000  Level Memphis Center
Sun 13:55:44 33.9753 -91.2739 46° Northeast 475 547 39,000  Level Memphis Center
Sun 13:56:44 34.0722 -91.1597 44° Northeast 480 552 39,000  Level Memphis Center
Sun 13:57:44 34.1667 -91.0400 46° Northeast 480 552 39,000  Level Memphis Center
Sun 13:58:44 34.2506 -90.9375 45° Northeast 480 552 39,000  Level Memphis Center
Sun 13:59:44 34.3450 -90.8200 46° Northeast 486 559 39,000  Level Memphis Center
Sun 14:00:44 34.4414 -90.7022 45° Northeast 481 554 39,000  Level Memphis Center
Sun 14:01:44 34.5378 -90.5842 45° Northeast 481 554 39,000  Level Memphis Center
Sun 14:02:44 34.6317 -90.4708 45° Northeast 474 545 39,000  Level Memphis Center
Sun 14:03:44 34.7342 -90.3394 46° Northeast 474 545 39,000  Level Memphis Center
Sun 14:04:44 34.8319 -90.2206 45° Northeast 480 552 39,000  Level Memphis Center
Sun 14:05:44 34.9258 -90.1089 44° Northeast 480 552 39,000  Level Memphis Center
Sun 14:06:44 35.0172 -89.9819 49° Northeast 486 559 39,000  Level Memphis Center
Sun 14:07:44 35.0772 -89.8267 65° Northeast 496 571 39,000  Level Memphis Center
Sun 14:08:44 35.1286 -89.6842 66° East 496 571 39,000  Level Memphis Center
Sun 14:09:44 35.1797 -89.5289 68° East 496 571 39,000  Level Memphis Center
Sun 14:10:44 35.2328 -89.3758 67° East 496 571 39,000  Level Memphis Center
Sun 14:11:44 35.2878 -89.2225 66° East 496 571 39,000  Level Memphis Center
Sun 14:12:44 35.3467 -89.0511 67° East 496 571 39,000  Level Memphis Center
Sun 14:13:44 35.3992 -88.8975 67° East 496 571 39,000  Level Memphis Center
Sun 14:14:44 35.4494 -88.7436 68° East 496 571 39,000  Level Memphis Center
Sun 14:15:44 35.5142 -88.5969 62° Northeast 496 571 39,000  Level Memphis Center
Sun 14:16:44 35.5828 -88.4475 61° Northeast 494 568 39,000  Level Memphis Center
Sun 14:17:44 35.6514 -88.3028 60° Northeast 494 568 39,000  Level Memphis Center
Sun 14:18:44 35.7197 -88.1528 61° Northeast 494 568 39,000  Level Memphis Center
Sun 14:19:44 35.7842 -88.0181 59° Northeast 475 547 39,000  Level Memphis Center
Sun 14:20:44 35.8500 -87.8703 61° Northeast 482 555 39,000  Level Memphis Center
Sun 14:21:44 35.9158 -87.7222 61° Northeast 482 555 39,000  Level Memphis Center
Sun 14:22:44 35.9814 -87.5764 61° Northeast 489 563 39,000  Level Memphis Center
Sun 14:23:44 36.0467 -87.4253 62° Northeast 489 563 39,000  Level Memphis Center
Sun 14:24:44 36.1119 -87.2817 61° Northeast 484 557 39,000  Level Memphis Center
Sun 14:25:44 36.1750 -87.1328 62° Northeast 490 564 39,000  Level Memphis Center
Sun 14:26:44 36.2397 -86.9836 62° Northeast 488 562 39,000  Level Memphis Center
Sun 14:27:44 36.3044 -86.8339 62° Northeast 495 570 39,000  Level Memphis Center
Sun 14:28:44 36.3728 -86.6714 62° Northeast 498 573 39,000  Level Memphis Center
Sun 14:29:44 36.4392 -86.5289 60° Northeast 509 586 39,000  Level Memphis Center
Sun 14:30:44 36.5033 -86.3761 62° Northeast 493 567 39,000  Level Memphis Center
Sun 14:32:19 36.6006 -86.1578 61° Northeast 497 572 39,000  Level Indianapolis Center
Sun 14:33:21 36.6658 -86.0033 62° Northeast 499 574 39,000  Level Indianapolis Center
Sun 14:34:23 36.7306 -85.8508 62° Northeast 496 571 39,000  Level Indianapolis Center
Sun 14:35:25 36.8056 -85.6700 63° Northeast 498 573 39,000  Level Indianapolis Center
Sun 14:36:27 36.8708 -85.5131 62° Northeast 503 579 39,000  Level Indianapolis Center
Sun 14:37:29 36.9314 -85.3736 61° Northeast 498 573 39,000  Level Indianapolis Center
Sun 14:38:31 36.9953 -85.2169 63° Northeast 504 580 39,000  Level Indianapolis Center
Sun 14:39:33 37.0719 -85.0336 62° Northeast 501 577 39,000  Level Indianapolis Center
Sun 14:40:35 37.1361 -84.8764 63° Northeast 505 581 39,000  Level Indianapolis Center
Sun 14:41:37 37.2000 -84.7189 63° Northeast 506 582 39,000  Level Indianapolis Center
Sun 14:42:39 37.2650 -84.5619 62° Northeast 505 581 39,000  Level Indianapolis Center
Sun 14:43:41 37.3275 -84.4033 64° Northeast 507 583 39,000  Level Indianapolis Center
Sun 14:44:43 37.3919 -84.2458 63° Northeast 506 582 39,000  Level Indianapolis Center
Sun 14:45:45 37.4689 -84.0578 63° Northeast 512 589 39,000  Level Indianapolis Center
Sun 14:46:47 37.5314 -83.8989 64° Northeast 507 583 39,000  Level Indianapolis Center
Sun 14:47:49 37.5961 -83.7381 63° Northeast 508 585 39,000  Level Indianapolis Center
Sun 14:48:51 37.6589 -83.5786 64° Northeast 508 585 39,000  Level Indianapolis Center
Sun 14:49:53 37.7211 -83.4189 64° Northeast 505 581 39,000  Level Indianapolis Center
Sun 14:50:55 37.7842 -83.2567 64° Northeast 509 586 39,000  Level Indianapolis Center
Sun 14:51:56 37.8472 -83.0933 64° Northeast 513 590 39,000  Level Indianapolis Center
Sun 14:52:58 37.9194 -82.9064 64° Northeast 506 582 39,000  Level Indianapolis Center
Sun 14:54:00 37.9825 -82.7458 63° Northeast 508 585 39,000  Level Indianapolis Center
Sun 14:55:02 38.0456 -82.5803 64° Northeast 515 593 39,000  Level Indianapolis Center
Sun 14:56:04 38.1108 -82.4075 64° Northeast 513 590 39,000  Level Indianapolis Center
Sun 14:57:06 38.1714 -82.2428 65° Northeast 515 593 39,000 -48 Level Indianapolis Center
Sun 14:58:08 38.2344 -82.0819 63° Northeast 510 587 38,900 -290 Descending Indianapolis Center
Sun 14:59:10 38.2958 -81.9161 65° Northeast 517 595 38,400 -484 Descending Indianapolis Center
Sun 15:00:12 38.3403 -81.7425 72° East 524 603 37,900 -435 Descending Indianapolis Center
Sun 15:01:14 38.3428 -81.5594 89° East 528 608 37,500 -774 Descending Indianapolis Center
Sun 15:02:16 38.3347 -81.3386 93° East 528 608 36,300 -1,122 Descending Indianapolis Center
Sun 15:03:17 38.3286 -81.1547 92° East 525 604 35,200 -1,073 Descending Indianapolis Center
Sun 15:04:19 38.3219 -80.9678 93° East 532 612 34,100 -1,065 Descending Indianapolis Center
Sun 15:05:21 38.3144 -80.7792 93° East 536 617 33,000 -532 Descending Indianapolis Center
Sun 15:06:23 38.3083 -80.5908 92° East 536 617 33,000 -63 Level Indianapolis Center
Sun 15:06:57 38.3181 -80.4719 84° East 533 613 32,900  Descending Washington Center
Sun 15:07:56 38.3542 -80.2942 75° East 518 596 33,000 -1,450 Climbing Washington Center
Sun 15:08:57 38.3878 -80.1269 76° East 532 612 30,000 -2,370 Descending Washington Center
Sun 15:09:55 38.4258 -79.9461 75° East 532 612 28,300 -1,714 Descending Washington Center
Sun 15:10:56 38.4592 -79.7678 77° East 525 604 26,600 -1,636 Descending Washington Center
Sun 15:11:56 38.4944 -79.5894 76° East 525 604 25,000 -1,289 Descending Washington Center
Sun 15:12:57 38.5342 -79.3978 75° East 514 592 24,000 -500 Descending Washington Center
Sun 15:13:56 38.5622 -79.2294 78° East 502 578 24,000 -50 Level Washington Center
Sun 15:14:56 38.5897 -79.0767 77° East 497 572 23,900 -1,438 Descending Washington Center
Sun 15:15:57 38.6236 -78.9108 75° East 483 556 21,100 -3,176 Descending Washington Center
Sun 15:16:55 38.6572 -78.7528 75° East 471 542 17,600 -3,305 Descending Washington Center
Sun 15:17:55 38.6883 -78.5944 76° East 466 536 14,600 -3,223 Descending Washington Center
Sun 15:18:56 38.7192 -78.4442 75° East 453 521 11,100 -1,785 Descending Washington Center
Sun 15:19:56 38.7656 -78.3314 62° Northeast 387 445 11,000 -744 Descending Washington Center
Sun 15:20:57 38.8236 -78.2483 48° Northeast 343 395 9,600 -1,475 Descending Washington Center
Sun 15:21:58 38.8672 -78.1564 59° Northeast 321 369 8,000 -1,322 Descending Washington Center
Sun 15:22:55 38.8925 -78.0508 73° East 307 353 7,000 -1,017 Descending Washington Center
Sun 15:23:56 38.9194 -77.9450 72° East 307 353 6,000 -496 Descending Washington Center
Sun 15:24:56 38.9467 -77.8389 72° East 293 337 6,000  Level Washington Center
Sun 15:25:56 38.9650 -77.7514 75° East 281 323 6,000 -149 Level Washington Center
Sun 15:26:57 38.9564 -77.6444 96° East 276 318 5,700 -621 Descending Washington Center
Sun 15:27:52 39.0000 -77.5833 47° Northeast 262 302 4,800 -1,138 Descending Potomac TRACON
Sun 15:28:53 39.0667 -77.5667 11° North 221 254 3,500 -1,370 Descending Potomac TRACON
Sun 15:29:59 39.0500 -77.5000 108° East 201 231 1,900 -1,150 Descending Potomac TRACON
Sun 15:30:53 39.0167 -77.4833 159° South 155 178 1,200 -626 Descending Potomac TRACON
Sun 15:31:54 38.9833 -77.4667 159° South 134 154 700 -492 Descending Potomac TRACON
Sun 15:33:00 38.9474 -77.4599 159° South  Level Estimated
Sun 15:40:00 38.9474 -77.4599 159° South  Level Estimated
Sun 15:41:00 38.9474 -77.4599 159° South  Level Estimated
Sun 15:42:00 38.9474 -77.4599 159° South  Level Estimated
Sun 15:43:00 38.9474 -77.4599 159° South  Level Estimated
Sun 15:44:00 38.9474 -77.4599 159° South  Level Estimated

Login

Don't have an account? Register now (free) for customized features, flight alerts, and more!